TimeGMT,TemperatureF,Dew PointF,Humidity,Sea Level PressureIn,VisibilityMPH,Wind Direction,Wind SpeedMPH,Gust SpeedMPH,PrecipitationIn,Events,Conditions,WindDirDegrees,DateUTC
12:00 AM,49,40,62,29.47,22,WSW,20.7,,,,Partly Cloudy,250,2013-11-03 00:00:00
12:20 AM,50.0,41.0,71,29.47,-9999.0,WSW,17.3,-,N/A,,Clear,250,2013-11-03 00:20:00
12:50 AM,50.0,41.0,71,29.47,-9999.0,WSW,16.1,-,N/A,,Clear,250,2013-11-03 00:50:00
1:20 AM,48.2,41.0,76,29.47,-9999.0,West,18.4,-,N/A,,Clear,260,2013-11-03 01:20:00
1:50 AM,48.2,39.2,71,29.47,6.2,West,18.4,-,N/A,,Unknown,260,2013-11-03 01:50:00
2:20 AM,48.2,39.2,71,29.50,6.2,West,17.3,-,N/A,,Unknown,260,2013-11-03 02:20:00
2:50 AM,48.2,39.2,71,29.50,6.2,West,17.3,-,N/A,,Unknown,260,2013-11-03 02:50:00
3:00 AM,47,38,63,29.51,22,West,17.3,,,,Mostly Cloudy,260,2013-11-03 03:00:00
3:20 AM,48.2,39.2,71,29.50,6.2,West,16.1,-,N/A,,Unknown,260,2013-11-03 03:20:00
3:50 AM,46.4,39.2,76,29.50,-9999.0,West,16.1,-,N/A,,Clear,260,2013-11-03 03:50:00
4:20 AM,46.4,39.2,76,29.50,-9999.0,WSW,16.1,-,N/A,,Clear,250,2013-11-03 04:20:00
4:50 AM,46.4,39.2,76,29.50,-9999.0,WSW,15.0,-,N/A,,Clear,250,2013-11-03 04:50:00
5:20 AM,46.4,39.2,76,29.50,-9999.0,WSW,16.1,-,N/A,,Clear,250,2013-11-03 05:20:00
5:50 AM,46.4,39.2,76,29.53,-9999.0,WSW,17.3,-,N/A,,Clear,240,2013-11-03 05:50:00
6:00 AM,46,38,65,,25,WSW,18.4,,,,,240,2013-11-03 06:00:00
6:20 AM,46.4,39.2,76,29.53,-9999.0,WSW,17.3,-,N/A,,Clear,250,2013-11-03 06:20:00
6:50 AM,46.4,39.2,76,29.53,-9999.0,WSW,20.7,-,N/A,,Clear,250,2013-11-03 06:50:00
7:20 AM,46.4,39.2,76,29.53,6.2,WSW,17.3,-,N/A,,Partly Cloudy,250,2013-11-03 07:20:00
7:50 AM,46.4,39.2,76,29.53,6.2,WSW,18.4,-,N/A,,Partly Cloudy,250,2013-11-03 07:50:00
8:20 AM,48.2,39.2,71,29.56,6.2,WSW,18.4,-,N/A,,Partly Cloudy,250,2013-11-03 08:20:00
8:50 AM,48.2,39.2,71,29.56,6.2,WSW,18.4,-,N/A,,Partly Cloudy,250,2013-11-03 08:50:00
9:00 AM,49,39,60,29.58,25,WSW,21.9,,,,,250,2013-11-03 09:00:00
9:20 AM,48.2,41.0,76,29.56,6.2,West,18.4,-,N/A,,Partly Cloudy,260,2013-11-03 09:20:00
9:50 AM,50.0,41.0,71,29.59,6.2,WSW,23.0,-,N/A,,Partly Cloudy,250,2013-11-03 09:50:00
10:20 AM,51.8,41.0,67,29.59,6.2,West,24.2,-,N/A,,Partly Cloudy,260,2013-11-03 10:20:00
10:50 AM,51.8,41.0,67,29.59,6.2,WSW,21.9,-,N/A,,Partly Cloudy,250,2013-11-03 10:50:00
11:20 AM,53.6,41.0,62,29.59,6.2,West,21.9,-,N/A,,Partly Cloudy,260,2013-11-03 11:20:00
11:50 AM,53.6,41.0,62,29.59,6.2,West,24.2,-,N/A,,Partly Cloudy,260,2013-11-03 11:50:00
12:00 PM,53,41,53,29.59,25,WSW,24.2,,,,,250,2013-11-03 12:00:00
12:20 PM,53.6,41.0,62,29.59,6.2,WSW,24.2,-,N/A,,Scattered Clouds,250,2013-11-03 12:20:00
12:50 PM,53.6,39.2,58,29.59,6.2,West,24.2,-,N/A,,Scattered Clouds,260,2013-11-03 12:50:00
1:20 PM,53.6,39.2,58,29.56,6.2,WSW,25.3,-,N/A,,Partly Cloudy,250,2013-11-03 13:20:00
1:50 PM,53.6,39.2,58,29.56,6.2,WSW,21.9,-,N/A,,Partly Cloudy,250,2013-11-03 13:50:00
2:20 PM,53.6,39.2,58,29.56,6.2,WSW,17.3,-,N/A,,Partly Cloudy,250,2013-11-03 14:20:00
2:50 PM,51.8,41.0,67,29.56,6.2,WSW,18.4,-,N/A,,Partly Cloudy,250,2013-11-03 14:50:00
3:00 PM,52,40,55,29.57,25,WSW,19.6,,,,Scattered Clouds,240,2013-11-03 15:00:00
3:20 PM,51.8,39.2,62,29.56,6.2,WSW,16.1,-,N/A,,Partly Cloudy,240,2013-11-03 15:20:00
3:50 PM,50.0,41.0,71,29.56,6.2,SW,13.8,-,N/A,,Partly Cloudy,220,2013-11-03 15:50:00
4:20 PM,50.0,39.2,66,29.53,-9999.0,SW,12.7,-,N/A,,Clear,220,2013-11-03 16:20:00
4:50 PM,50.0,41.0,71,29.53,-9999.0,SW,11.5,-,N/A,,Clear,220,2013-11-03 16:50:00
5:20 PM,50.0,41.0,71,29.53,-9999.0,SW,9.2,-,N/A,,Clear,220,2013-11-03 17:20:00
5:50 PM,48.2,41.0,76,29.50,-9999.0,SSW,9.2,-,N/A,,Clear,200,2013-11-03 17:50:00
6:00 PM,49,40,62,29.51,19,South,9.2,,,,Overcast,190,2013-11-03 18:00:00
6:20 PM,48.2,41.0,76,29.47,-9999.0,SSW,9.2,-,N/A,,Clear,200,2013-11-03 18:20:00
6:50 PM,48.2,41.0,76,29.47,6.2,South,8.1,-,N/A,,Scattered Clouds,190,2013-11-03 18:50:00
7:20 PM,48.2,42.8,82,29.44,6.2,South,8.1,-,N/A,Rain,Light Rain,190,2013-11-03 19:20:00
7:50 PM,46.4,42.8,87,29.42,5.6,South,6.9,-,N/A,Rain,Light Rain,170,2013-11-03 19:50:00
8:20 PM,46.4,42.8,87,29.36,5.6,ESE,8.1,-,N/A,Rain,Rain,110,2013-11-03 20:20:00
8:50 PM,46.4,44.6,93,29.33,4.3,East,9.2,-,N/A,Rain,Rain,90,2013-11-03 20:50:00
9:00 PM,46,44,89,29.33,2,East,8.1,,,Rain,Rain,90,2013-11-03 21:00:00
9:20 PM,46.4,44.6,93,29.30,3.1,East,10.4,-,N/A,Rain,Rain,90,2013-11-03 21:20:00
9:50 PM,46.4,44.6,93,29.24,-9999.0,East,11.5,-,N/A,Rain,Rain,80,2013-11-03 21:50:00
10:20 PM,46.4,44.6,93,29.18,-9999.0,ENE,11.5,-,N/A,Rain,Rain,70,2013-11-03 22:20:00
10:50 PM,46.4,46.4,100,29.12,-9999.0,ENE,12.7,-,N/A,Rain,Rain,70,2013-11-03 22:50:00
11:20 PM,46.4,46.4,100,29.09,-9999.0,Variable,4.6,-,N/A,Rain,Rain,0,2013-11-03 23:20:00
11:50 PM,46.4,46.4,100,29.06,-9999.0,NE,6.9,-,N/A,Rain,Light Rain,50,2013-11-03 23:50:00